This is the latest recevied weather packets stored in our database for station/object KG4QXF. If no packets are shown the sender has not sent any weather packets the latest 1 day(s).
| Time | Temp. | Humidity | Pressure | Rain* | Wind** | Luminosity | Snow |
|---|---|---|---|---|---|---|---|
| 1836274593 | 22.22° C | 96% | 1019.4 hPa | 0 mm | 0 m/s | - | - |
| 1836274447 | 22.22° C | 96% | 1019.5 hPa | 0 mm | 0 m/s | - | - |
| 1836274291 | 22.22° C | 96% | 1019.6 hPa | 0 mm | 0 m/s | - | - |
| 1836274145 | 21.67° C | 96% | 1019.4 hPa | 0 mm | 0 m/s | - | - |
| 1836273990 | 22.22° C | 96% | 1019.4 hPa | 0 mm | 0 m/s | - | - |
| 1778045185 | 18.89° C | 84% | 1018.2 hPa | 0 mm | 0 m/s | - | - |
| 1778044882 | 18.89° C | 83% | 1018.2 hPa | 0 mm | 0 m/s | - | - |
| 1778044579 | 18.89° C | 82% | 1018.5 hPa | 0 mm | 0 m/s | - | - |
| 1778044275 | 19.44° C | 82% | 1018.4 hPa | 0 mm | 0 m/s | - | - |
| 1778043974 | 19.44° C | 81% | 1018.5 hPa | 0 mm | 0 m/s | - | - |
| 1778043671 | 19.44° C | 81% | 1018.3 hPa | 0 mm | 0.89 m/s, 170° | - | - |
| 1778043368 | 19.44° C | 80% | 1018.6 hPa | 0 mm | 0 m/s | - | - |
| 1778043064 | 19.44° C | 80% | 1018.5 hPa | 0 mm | 0.45 m/s, 141° | - | - |
| 1778042762 | 19.44° C | 80% | 1018.7 hPa | 0 mm | 0 m/s | - | - |
| 1778042458 | 19.44° C | 80% | 1018.7 hPa | 0 mm | 0 m/s | - | - |
| 1778042156 | 19.44° C | 81% | 1018.6 hPa | 0 mm | 0 m/s | - | - |
| 1778041854 | 19.44° C | 80% | 1018.7 hPa | 0 mm | 0 m/s | - | - |
| 1778041553 | 19.44° C | 81% | 1018.6 hPa | 0 mm | 0 m/s | - | - |
| 1778041250 | 18.89° C | 82% | 1018.7 hPa | 0 mm | 0 m/s | - | - |
| 1778040949 | 18.89° C | 83% | 1018.6 hPa | 0 mm | 0 m/s | - | - |
| 1778040645 | 18.89° C | 82% | 1018.5 hPa | 0 mm | 0 m/s | - | - |
| 1778040343 | 18.89° C | 82% | 1018.6 hPa | 0 mm | 0 m/s | - | - |
| 1778040039 | 18.89° C | 81% | 1018.7 hPa | 0 mm | 0 m/s | - | - |
| 1778039736 | 18.89° C | 81% | 1018.9 hPa | 0 mm | 0 m/s | - | - |
| 1778039433 | 18.89° C | 81% | 1018.6 hPa | 0 mm | 0 m/s | - | - |
* Rain latest hour (hover to see other rain measurements)
** Current wind speed in m/s (hover to see current wind gust speed)